Time;durP1;ratioP1;P1;durP2;ratioP2;P2;SDS_P1;SDS_P2;PMS_P1;PMS_P2;Temp;Humidity;BMP_temperature;BMP_pressure;BME280_temperature;BME280_humidity;BME280_pressure;Samples;Min_cycle;Max_cycle;Signal;HPM_P1;HPM_P2
2021/03/09 00:00:06;;;;;;;15.63;8.40;;;;;;;4.57;42.53;94900.72;5075336;28;20455;-77
2021/03/09 00:02:32;;;;;;;16.00;8.30;;;;;;;4.60;42.16;94902.28;5023715;28;20843;-77
2021/03/09 00:04:59;;;;;;;16.07;8.47;;;;;;;4.60;41.88;94899.69;5023751;28;20818;-77
2021/03/09 00:07:25;;;;;;;14.37;7.93;;;;;;;4.60;42.72;94900.53;5074351;28;20432;-77
2021/03/09 00:09:51;;;;;;;18.33;8.60;;;;;;;4.62;42.55;94903.84;5040016;28;20447;-78
2021/03/09 00:12:18;;;;;;;17.70;9.53;;;;;;;4.61;41.71;94904.78;5075762;28;20460;-78
2021/03/09 00:14:44;;;;;;;19.83;9.00;;;;;;;4.61;42.20;94910.00;5074893;28;20913;-77
2021/03/09 00:17:11;;;;;;;17.73;8.30;;;;;;;4.55;42.95;94910.38;5074743;28;20445;-78
2021/03/09 00:19:38;;;;;;;13.53;7.77;;;;;;;4.57;42.73;94915.47;5074797;28;20951;-78
2021/03/09 00:22:04;;;;;;;15.50;9.40;;;;;;;4.52;42.86;94920.13;5074725;28;20440;-78
2021/03/09 00:24:30;;;;;;;20.70;9.50;;;;;;;4.49;42.68;94915.09;5074938;28;20491;-78
2021/03/09 00:26:57;;;;;;;12.23;8.60;;;;;;;4.45;43.29;94918.81;5075242;28;20448;-78
2021/03/09 00:29:23;;;;;;;9.27;7.67;;;;;;;4.42;43.55;94919.84;5074970;28;20470;-78
2021/03/09 00:31:50;;;;;;;13.70;7.80;;;;;;;4.37;43.74;94919.28;5074661;28;20428;-78
2021/03/09 00:34:17;;;;;;;17.07;8.77;;;;;;;4.31;43.34;94914.44;5074907;28;20518;-78
2021/03/09 00:36:43;;;;;;;17.03;8.80;;;;;;;4.25;43.74;94915.66;5022977;28;20842;-77
2021/03/09 00:39:10;;;;;;;19.53;8.40;;;;;;;4.18;43.71;94914.34;5074551;28;20992;-78
2021/03/09 00:41:36;;;;;;;11.27;8.20;;;;;;;4.14;43.87;94914.63;5074129;28;20933;-78
2021/03/09 00:44:04;;;;;;;12.17;7.40;;;;;;;4.10;44.08;94915.75;5039964;28;20847;-78
2021/03/09 00:46:30;;;;;;;10.70;6.60;;;;;;;4.07;44.33;94908.13;5055627;28;20501;-78
2021/03/09 00:48:57;;;;;;;9.77;7.13;;;;;;;4.00;44.74;94910.25;5074624;28;20437;-79
2021/03/09 00:51:24;;;;;;;13.77;8.50;;;;;;;3.99;44.63;94909.41;5074328;28;20908;-78
2021/03/09 00:53:50;;;;;;;11.77;7.77;;;;;;;3.94;44.65;94910.59;5022800;28;20444;-77
2021/03/09 00:56:17;;;;;;;10.03;7.40;;;;;;;3.94;44.87;94910.59;5074031;28;20460;-78
2021/03/09 00:58:43;;;;;;;10.67;7.70;;;;;;;3.95;44.47;94912.28;5074135;28;20439;-79
2021/03/09 01:01:09;;;;;;;12.43;8.27;;;;;;;3.94;44.87;94906.25;5073925;28;20440;-78
2021/03/09 01:03:36;;;;;;;12.23;6.70;;;;;;;3.96;45.23;94913.94;5073856;28;20574;-78
2021/03/09 01:06:02;;;;;;;8.30;6.93;;;;;;;3.92;44.21;94902.91;5074255;28;20448;-78
2021/03/09 01:08:29;;;;;;;8.97;6.33;;;;;;;3.89;44.34;94897.06;5073533;28;21006;-79
2021/03/09 01:10:56;;;;;;;8.53;6.37;;;;;;;3.91;44.40;94896.03;5073865;28;20444;-78
2021/03/09 01:13:22;;;;;;;15.37;7.57;;;;;;;3.89;44.86;94897.06;5073952;28;20502;-79
2021/03/09 01:15:48;;;;;;;15.93;8.30;;;;;;;3.88;44.72;94898.00;5073723;28;20444;-79
2021/03/09 01:18:15;;;;;;;17.33;8.10;;;;;;;3.87;44.93;94894.56;5073415;28;20444;-78
2021/03/09 01:20:41;;;;;;;13.93;8.50;;;;;;;3.94;44.34;94901.06;5073412;28;20455;-78
2021/03/09 01:23:08;;;;;;;17.27;8.47;;;;;;;3.96;44.73;94903.56;5038351;28;20480;-78
2021/03/09 01:25:35;;;;;;;17.17;7.90;;;;;;;4.00;44.49;94902.44;5073430;28;20448;-78
2021/03/09 01:28:01;;;;;;;14.13;8.13;;;;;;;4.01;44.41;94907.56;5073356;28;20448;-78
2021/03/09 01:30:28;;;;;;;34.37;14.43;;;;;;;4.01;48.51;94906.72;5074050;28;20999;-78
2021/03/09 01:32:54;;;;;;;23.23;14.43;;;;;;;3.99;50.33;94905.97;5074386;28;20479;-78
2021/03/09 01:35:21;;;;;;;31.67;17.70;;;;;;;3.89;50.88;94910.03;5074218;28;20437;-79
2021/03/09 01:37:47;;;;;;;37.43;21.57;;;;;;;3.89;49.51;94907.44;5073999;28;20444;-78
2021/03/09 01:40:13;;;;;;;44.83;20.00;;;;;;;3.87;49.65;94915.31;5073735;28;20870;-78
2021/03/09 01:42:41;;;;;;;34.67;19.47;;;;;;;3.86;49.49;94915.41;5073395;28;20447;-78
2021/03/09 01:45:09;;;;;;;38.07;17.67;;;;;;;3.83;49.50;94908.66;5073618;28;20771;-78
2021/03/09 01:47:40;;;;;;;25.80;15.50;;;;;;;3.79;49.21;94908.91;5073369;28;20448;-79
2021/03/09 01:50:08;;;;;;;23.60;14.07;;;;;;;3.82;48.44;94916.53;5074048;28;20519;-78
2021/03/09 01:52:35;;;;;;;20.03;10.10;;;;;;;3.78;47.78;94910.69;5073507;28;20455;-78
2021/03/09 01:55:02;;;;;;;13.40;8.57;;;;;;;3.68;46.78;94902.56;5073682;28;20440;-78
2021/03/09 01:57:29;;;;;;;14.23;8.20;;;;;;;3.68;46.73;94920.72;5073203;28;20436;-79
2021/03/09 01:59:56;;;;;;;14.07;7.50;;;;;;;3.57;46.23;94912.75;5073522;28;20455;-78
2021/03/09 02:02:23;;;;;;;14.10;8.70;;;;;;;3.56;46.32;94916.25;5073464;28;20509;-78
2021/03/09 02:04:50;;;;;;;13.30;9.97;;;;;;;3.62;45.73;94915.91;5073408;28;20488;-77
2021/03/09 02:07:16;;;;;;;17.43;10.47;;;;;;;3.67;45.34;94921.66;5073861;28;20453;-77
2021/03/09 02:09:42;;;;;;;13.50;7.30;;;;;;;3.67;45.39;94918.22;5072913;28;20444;-77
2021/03/09 02:12:17;;;;;;;14.90;8.60;;;;;;;3.73;45.78;94923.06;5037931;28;20964;-77
2021/03/09 02:14:53;;;;;;;13.83;7.80;;;;;;;3.73;45.71;94921.28;5037984;28;20930;-77
2021/03/09 02:17:29;;;;;;;16.43;9.37;;;;;;;3.76;45.56;94922.03;5073304;28;20447;-77
2021/03/09 02:20:26;;;;;;;12.95;9.30;;;;;;;3.80;46.07;94914.03;5073123;28;20429;-77
2021/03/09 02:23:38;;;;;;;12.73;7.70;;;;;;;3.80;45.87;94918.38;5073106;28;20218;-78
2021/03/09 02:26:24;;;;;;;11.67;7.70;;;;;;;3.83;46.64;94915.59;5072735;28;20432;-77
2021/03/09 02:28:57;;;;;;;9.10;7.07;;;;;;;3.88;46.42;94917.00;5073403;28;20452;-77
2021/03/09 02:31:28;;;;;;;13.57;7.90;;;;;;;3.94;47.05;94921.00;5075148;28;20444;-77
2021/03/09 02:33:58;;;;;;;16.43;9.07;;;;;;;3.88;47.57;94908.38;5076422;28;20489;-78
2021/03/09 02:36:28;;;;;;;23.90;11.90;;;;;;;3.90;48.12;94922.09;5076987;28;20436;-78
2021/03/09 02:38:57;;;;;;;22.70;12.40;;;;;;;3.87;48.43;94917.09;5077097;28;20424;-78
2021/03/09 02:41:26;;;;;;;21.20;11.67;;;;;;;3.85;48.24;94926.72;5076633;28;20452;-78
2021/03/09 02:43:55;;;;;;;15.00;10.47;;;;;;;3.81;47.81;94925.25;5076935;28;20476;-78
2021/03/09 02:46:24;;;;;;;17.33;9.80;;;;;;;3.79;47.57;94922.72;5025005;28;20948;-78
2021/03/09 02:48:52;;;;;;;10.60;8.00;;;;;;;3.73;46.75;94910.91;5076988;28;20444;-78
2021/03/09 02:51:23;;;;;;;10.83;6.80;;;;;;;3.73;47.17;94929.09;5076960;28;20437;-78
2021/03/09 02:53:52;;;;;;;15.57;8.67;;;;;;;3.74;47.22;94925.56;5076651;28;20439;-78
2021/03/09 02:56:19;;;;;;;8.33;6.30;;;;;;;3.72;47.31;94927.41;5025216;28;20437;-78
2021/03/09 02:58:49;;;;;;;10.70;6.50;;;;;;;3.70;47.39;94923.25;5076677;28;20448;-78
2021/03/09 03:01:17;;;;;;;11.43;7.27;;;;;;;3.70;47.93;94925.84;5076753;28;20448;-78
2021/03/09 03:03:46;;;;;;;12.93;7.97;;;;;;;3.68;47.82;94927.69;5076374;28;20475;-78
2021/03/09 03:06:15;;;;;;;14.33;7.03;;;;;;;3.65;47.37;94930.47;5076579;28;20789;-77
2021/03/09 03:08:43;;;;;;;12.23;6.70;;;;;;;3.62;47.65;94928.03;5076393;28;20451;-77
2021/03/09 03:11:11;;;;;;;10.30;6.83;;;;;;;3.55;47.67;94924.13;5076403;28;20219;-77
2021/03/09 03:13:39;;;;;;;11.73;7.10;;;;;;;3.48;47.85;94926.25;5075985;28;20440;-77
2021/03/09 03:16:06;;;;;;;11.80;7.27;;;;;;;3.41;48.46;94930.09;5076349;28;21011;-77
2021/03/09 03:18:35;;;;;;;13.25;7.22;;;;;;;3.39;48.15;94918.97;5076510;28;20452;-77
2021/03/09 03:21:04;;;;;;;14.50;7.27;;;;;;;3.33;48.69;94924.50;5076831;28;20236;-77
2021/03/09 03:23:33;;;;;;;10.30;7.00;;;;;;;3.31;48.33;94928.94;5041142;28;20484;-78
2021/03/09 03:26:04;;;;;;;10.65;7.50;;;;;;;3.29;48.40;94933.38;5076415;28;20948;-77
2021/03/09 03:28:32;;;;;;;9.75;6.80;;;;;;;3.28;48.67;94934.28;5076145;28;20232;-77
2021/03/09 03:31:00;;;;;;;9.77;6.30;;;;;;;3.24;48.31;94938.00;5076410;28;20666;-77
2021/03/09 03:33:28;;;;;;;13.73;7.97;;;;;;;3.25;48.77;94937.06;5076455;28;20480;-78
2021/03/09 03:35:54;;;;;;;17.20;11.60;;;;;;;3.29;49.43;94943.75;5076388;28;20463;-78
2021/03/09 03:38:21;;;;;;;14.77;10.65;;;;;;;3.36;49.75;94947.66;5076812;28;20436;-77
2021/03/09 03:40:49;;;;;;;20.77;14.30;;;;;;;3.29;50.09;94941.16;5075975;28;20621;-78
2021/03/09 03:43:15;;;;;;;27.83;16.50;;;;;;;3.35;49.73;94938.22;5075754;28;20492;-77
2021/03/09 03:45:41;;;;;;;33.17;14.40;;;;;;;3.35;50.22;94944.22;5075583;28;20202;-77
2021/03/09 03:48:08;;;;;;;30.70;16.10;;;;;;;3.37;50.35;94941.56;5075402;28;20212;-78
2021/03/09 03:50:35;;;;;;;26.90;15.93;;;;;;;3.41;50.17;94953.44;5024038;28;20449;-78
2021/03/09 03:53:10;;;;;;;33.42;17.10;;;;;;;3.43;50.32;94952.41;5074955;28;20255;-78
2021/03/09 03:55:59;;;;;;;28.60;15.00;;;;;;;3.48;50.48;94947.00;5075024;28;20534;-78
2021/03/09 03:58:30;;;;;;;23.88;14.60;;;;;;;3.49;50.67;94940.06;5075054;28;20440;-78
2021/03/09 04:00:58;;;;;;;28.40;13.57;;;;;;;3.51;50.19;94944.22;5075101;28;20210;-78
2021/03/09 04:03:24;;;;;;;19.17;11.40;;;;;;;3.49;50.07;94942.66;5074760;28;20502;-78
2021/03/09 04:05:53;;;;;;;15.20;9.90;;;;;;;3.47;49.87;94942.72;5074908;28;20470;-78
2021/03/09 04:08:19;;;;;;;16.97;9.50;;;;;;;3.44;49.95;94942.88;5074569;28;20448;-78
2021/03/09 04:10:49;;;;;;;11.52;7.82;;;;;;;3.38;49.87;94945.81;5074603;28;20448;-78
2021/03/09 04:13:18;;;;;;;13.87;8.83;;;;;;;3.33;50.07;94945.25;5074842;28;20210;-78
2021/03/09 04:15:45;;;;;;;14.02;8.80;;;;;;;3.33;50.12;94940.91;5074860;28;20448;-78
2021/03/09 04:18:15;;;;;;;12.73;8.83;;;;;;;3.31;50.29;94953.13;5075124;28;20568;-77
2021/03/09 04:20:43;;;;;;;11.07;7.80;;;;;;;3.35;50.21;94953.78;5074765;28;20444;-78
2021/03/09 04:23:10;;;;;;;13.83;8.10;;;;;;;3.33;50.14;94953.88;5074452;28;20488;-78
2021/03/09 04:25:40;;;;;;;21.63;11.10;;;;;;;3.37;50.55;94959.72;5074791;28;20425;-78
2021/03/09 04:28:07;;;;;;;16.73;8.97;;;;;;;3.38;50.43;94962.22;5074817;28;20432;-79
2021/03/09 04:30:35;;;;;;;10.17;8.57;;;;;;;3.43;50.07;94969.72;5074919;28;20445;-78
2021/03/09 04:33:02;;;;;;;38.97;15.57;;;;;;;3.42;49.47;94966.31;5074789;28;20480;-78
2021/03/09 04:35:29;;;;;;;34.10;21.77;;;;;;;3.39;49.22;94963.88;5023507;28;20940;-78
2021/03/09 04:37:56;;;;;;;23.60;13.43;;;;;;;3.38;51.09;94969.16;5074885;28;20212;-78
2021/03/09 04:40:23;;;;;;;28.98;14.60;;;;;;;3.27;53.13;94972.34;5074647;28;20209;-79
2021/03/09 04:42:49;;;;;;;30.77;15.65;;;;;;;3.19;52.95;94968.53;5073886;28;20496;-78
2021/03/09 04:45:16;;;;;;;24.88;14.50;;;;;;;3.11;52.64;94971.50;5092504;28;20250;-78
2021/03/09 04:47:44;;;;;;;36.97;20.38;;;;;;;3.14;53.35;94971.34;5094694;28;20197;-78
2021/03/09 04:50:14;;;;;;;66.20;25.20;;;;;;;3.13;53.59;94968.84;5095161;28;20539;-78
2021/03/09 04:52:41;;;;;;;76.60;30.20;;;;;;;3.17;53.32;94967.75;5093944;28;20436;-78
2021/03/09 04:55:09;;;;;;;68.72;32.20;;;;;;;3.17;53.04;94971.16;5094636;28;20443;-78
2021/03/09 04:57:38;;;;;;;67.90;27.52;;;;;;;3.19;53.14;94976.31;5094378;28;20261;-78
2021/03/09 05:00:07;;;;;;;42.85;20.88;;;;;;;3.20;52.98;94973.63;5094850;28;20194;-78
2021/03/09 05:02:33;;;;;;;33.60;18.50;;;;;;;3.23;52.35;94975.22;5055110;28;20251;-78
2021/03/09 05:05:01;;;;;;;26.02;14.90;;;;;;;3.28;52.47;94968.84;5094396;28;20479;-78
2021/03/09 05:07:27;;;;;;;35.67;14.43;;;;;;;3.30;52.21;94969.59;5094225;28;20197;-77
2021/03/09 05:09:54;;;;;;;24.65;12.68;;;;;;;3.35;52.15;94977.13;5094771;28;20424;-76
2021/03/09 05:12:20;;;;;;;31.83;15.10;;;;;;;3.40;51.29;94978.53;5094601;28;20197;-77
2021/03/09 05:14:47;;;;;;;40.87;18.77;;;;;;;3.41;50.82;94975.00;5095005;28;20529;-77
2021/03/09 05:17:13;;;;;;;45.30;22.80;;;;;;;3.42;51.55;94974.09;5094069;28;20428;-77
2021/03/09 05:19:39;;;;;;;53.63;32.38;;;;;;;3.41;52.51;94976.78;5094086;28;20446;-77
2021/03/09 05:22:07;;;;;;;84.53;49.37;;;;;;;3.29;52.08;94961.91;5094635;28;20688;-77
2021/03/09 05:24:33;;;;;;;80.97;47.97;;;;;;;3.30;53.01;94976.53;5094287;28;20902;-77
2021/03/09 05:27:00;;;;;;;56.95;29.13;;;;;;;3.33;53.76;94976.38;5059584;28;20494;-77
2021/03/09 05:29:26;;;;;;;60.33;24.80;;;;;;;3.47;52.70;94968.66;5093561;28;20198;-78
2021/03/09 05:31:52;;;;;;;51.53;24.47;;;;;;;3.93;52.27;94976.44;5093901;28;20658;-77
2021/03/09 05:34:19;;;;;;;48.53;23.50;;;;;;;4.57;50.07;94973.47;5094203;28;20455;-78
2021/03/09 05:36:45;;;;;;;58.30;28.10;;;;;;;5.31;48.42;94980.22;5092920;28;20459;-78
2021/03/09 05:39:13;;;;;;;58.07;28.97;;;;;;;6.15;47.06;94978.25;5093973;28;20440;-78
2021/03/09 05:41:39;;;;;;;58.30;27.07;;;;;;;6.92;44.67;94980.88;5093817;28;20440;-78
2021/03/09 05:44:07;;;;;;;48.03;23.13;;;;;;;7.39;42.95;94975.78;5093641;28;20566;-78
2021/03/09 05:46:33;;;;;;;41.03;19.67;;;;;;;7.82;41.26;94964.88;5054406;28;20940;-78
2021/03/09 05:49:00;;;;;;;38.47;15.13;;;;;;;8.08;39.57;94966.41;5073697;28;20424;-77
2021/03/09 05:51:27;;;;;;;24.40;14.07;;;;;;;8.35;39.38;94965.31;5093712;28;20950;-77
2021/03/09 05:53:53;;;;;;;18.43;12.50;;;;;;;8.70;38.78;94975.78;5093941;28;20861;-78
2021/03/09 05:56:22;;;;;;;26.53;12.53;;;;;;;8.97;38.42;94978.06;5093850;28;20447;-78
2021/03/09 05:58:49;;;;;;;17.77;10.77;;;;;;;9.23;37.19;94982.06;5093479;28;20428;-79
2021/03/09 06:01:16;;;;;;;18.67;10.43;;;;;;;9.47;36.83;94981.13;5093664;28;20531;-78
2021/03/09 06:03:42;;;;;;;12.40;9.23;;;;;;;9.72;36.19;94985.25;5093652;28;20476;-78
2021/03/09 06:06:09;;;;;;;22.17;13.60;;;;;;;9.84;36.28;94982.50;5092704;28;20449;-78
2021/03/09 06:08:35;;;;;;;34.80;21.77;;;;;;;9.61;36.11;94975.63;5041933;28;20440;-78
2021/03/09 06:11:18;;;;;;;50.17;22.53;;;;;;;9.61;37.00;94979.09;5093210;28;20452;-78
2021/03/09 06:13:45;;;;;;;31.70;20.27;;;;;;;9.74;37.49;94981.53;5093616;28;20440;-78
2021/03/09 06:16:12;;;;;;;34.17;21.70;;;;;;;9.59;36.91;94993.25;5093523;28;20467;-78
2021/03/09 06:18:50;;;;;;;39.47;22.30;;;;;;;9.48;37.02;94996.72;5091776;28;20437;-78
2021/03/09 06:21:17;;;;;;;36.03;20.93;;;;;;;9.72;36.75;94993.94;5041018;28;20445;-77
2021/03/09 06:23:45;;;;;;;48.43;25.43;;;;;;;9.89;36.87;94993.44;5093270;28;20847;-77
2021/03/09 06:26:34;;;;;;;44.90;26.43;;;;;;;9.96;35.92;94996.38;5093122;28;20458;-77
2021/03/09 06:29:10;;;;;;;59.40;27.13;;;;;;;9.62;36.86;95003.50;5092722;28;20457;-77
2021/03/09 06:31:36;;;;;;;46.00;24.40;;;;;;;9.17;36.95;95013.16;5093834;28;20456;-76
2021/03/09 06:34:21;;;;;;;41.13;24.87;;;;;;;8.83;38.44;95007.06;5093307;28;20477;-77
2021/03/09 06:37:13;;;;;;;51.43;23.83;;;;;;;8.58;39.24;95015.91;5057060;28;20465;-76
2021/03/09 06:39:54;;;;;;;45.07;23.90;;;;;;;8.18;38.78;95012.78;5011342;28;20447;-77
2021/03/09 06:42:25;;;;;;;39.63;22.50;;;;;;;7.76;39.80;95015.78;5011084;28;20448;-76
2021/03/09 06:44:55;;;;;;;39.50;22.00;;;;;;;7.15;40.69;95016.66;5010773;28;20490;-76
2021/03/09 06:47:36;;;;;;;33.77;23.00;;;;;;;6.85;42.13;95014.38;4963546;28;20889;-77
2021/03/09 06:50:05;;;;;;;44.13;22.60;;;;;;;6.61;42.41;95027.28;5011402;28;20457;-77
2021/03/09 06:52:31;;;;;;;50.10;24.77;;;;;;;6.35;43.38;95025.59;5010766;28;20446;-77
2021/03/09 06:54:58;;;;;;;37.50;20.97;;;;;;;6.48;43.33;95026.47;5010717;28;20998;-77
2021/03/09 06:57:25;;;;;;;29.97;19.70;;;;;;;6.69;43.19;95030.25;5010938;28;20451;-77
2021/03/09 06:59:54;;;;;;;35.63;19.83;;;;;;;7.07;42.32;95029.41;5010923;28;20522;-77
2021/03/09 07:02:21;;;;;;;36.70;21.87;;;;;;;7.21;42.44;95018.81;5011331;28;20435;-77
2021/03/09 07:04:49;;;;;;;31.97;20.40;;;;;;;7.54;43.03;95031.31;5011088;28;20523;-76
2021/03/09 07:07:20;;;;;;;38.27;22.07;;;;;;;7.91;41.94;95021.69;5010755;28;20931;-76
2021/03/09 07:09:55;;;;;;;39.10;21.13;;;;;;;8.30;40.83;95024.94;5010887;28;20447;-76
2021/03/09 07:12:22;;;;;;;43.60;21.20;;;;;;;8.41;40.88;95025.03;5010836;28;20813;-77
2021/03/09 07:14:50;;;;;;;35.63;19.97;;;;;;;8.44;40.90;95018.75;5010735;28;20445;-76
2021/03/09 07:17:21;;;;;;;32.87;20.37;;;;;;;8.13;40.87;95020.13;5072614;28;20531;-77
2021/03/09 07:19:48;;;;;;;29.90;19.20;;;;;;;7.98;40.74;95014.22;5024801;28;20802;-81
2021/03/09 07:22:16;;;;;;;37.50;20.30;;;;;;;7.88;41.49;95028.91;5075555;28;20436;-79
2021/03/09 07:24:50;;;;;;;26.23;18.63;;;;;;;7.66;41.03;95033.06;5075499;28;20574;-78
2021/03/09 07:27:18;;;;;;;32.30;20.03;;;;;;;7.63;41.29;95029.81;5075952;28;20828;-80
2021/03/09 07:29:55;;;;;;;33.47;19.97;;;;;;;7.51;41.94;95034.13;5056889;28;20444;-80
2021/03/09 07:32:26;;;;;;;40.00;22.40;;;;;;;7.56;41.80;95039.03;5076443;28;20472;-80
2021/03/09 07:34:54;;;;;;;36.50;22.33;;;;;;;7.85;42.32;95031.75;5045634;28;20443;-79
2021/03/09 07:37:21;;;;;;;33.70;20.33;;;;;;;8.15;40.78;95028.69;5096002;28;20492;-81
2021/03/09 07:39:49;;;;;;;43.13;20.97;;;;;;;8.55;39.93;95032.66;5096687;28;20446;-81
2021/03/09 07:42:17;;;;;;;34.63;22.13;;;;;;;8.89;38.33;95024.91;5097395;28;20463;-81
2021/03/09 07:44:45;;;;;;;38.80;22.30;;;;;;;9.21;38.66;95019.81;5097257;28;20520;-81
2021/03/09 07:47:13;;;;;;;31.10;19.40;;;;;;;9.36;37.30;95023.88;5097556;28;20444;-81
2021/03/09 07:49:42;;;;;;;35.63;17.63;;;;;;;9.57;37.64;95027.44;5096887;28;20413;-81
2021/03/09 07:52:16;;;;;;;29.07;19.70;;;;;;;9.61;36.49;95023.63;5092805;28;20453;-81
2021/03/09 07:55:20;;;;;;;35.80;21.40;;;;;;;9.45;36.77;95017.06;5076045;28;20528;-80
2021/03/09 07:57:47;;;;;;;36.67;22.43;;;;;;;9.27;37.47;94998.41;5076514;28;20842;-81
2021/03/09 08:00:15;;;;;;;41.33;21.93;;;;;;;9.23;37.60;94992.56;5075751;28;20443;-81
2021/03/09 08:02:57;;;;;;;39.80;22.50;;;;;;;9.24;38.18;95001.25;5076570;28;20448;-81
2021/03/09 08:05:26;;;;;;;37.93;20.07;;;;;;;9.20;37.93;95011.13;5075451;28;20472;-81
2021/03/09 08:08:01;;;;;;;39.50;20.93;;;;;;;9.17;38.00;95013.97;5075646;28;20786;-81
2021/03/09 08:10:39;;;;;;;35.00;21.03;;;;;;;9.08;38.45;95008.63;5075811;28;20453;-82
2021/03/09 08:13:22;;;;;;;39.93;21.93;;;;;;;9.08;38.72;95006.00;5075661;28;20673;-81
2021/03/09 08:15:48;;;;;;;71.20;37.70;;;;;;;9.10;38.46;95004.94;5075606;28;20566;-82
2021/03/09 08:18:42;;;;;;;49.17;22.73;;;;;;;9.15;39.04;94997.56;5075546;28;21085;-81
2021/03/09 08:21:10;;;;;;;38.47;19.97;;;;;;;9.11;39.15;94990.91;4999010;28;20587;-82
2021/03/09 08:23:56;;;;;;;37.83;21.83;;;;;;;9.10;38.94;94994.47;5013481;28;20904;-82
2021/03/09 08:26:45;;;;;;;33.67;21.00;;;;;;;9.06;39.53;94995.66;5013346;28;20470;-82
2021/03/09 08:29:36;;;;;;;46.30;25.40;;;;;;;9.05;38.95;94991.38;5012359;28;20452;-82
2021/03/09 08:32:38;;;;;;;47.30;25.30;;;;;;;9.09;39.51;95000.66;5013116;28;20452;-82
2021/03/09 08:35:34;;;;;;;41.00;23.47;;;;;;;9.17;39.34;94997.44;5013031;28;20437;-82
2021/03/09 08:38:16;;;;;;;39.77;22.67;;;;;;;9.17;39.55;94992.19;5013157;28;20445;-82
2021/03/09 08:41:02;;;;;;;48.80;24.50;;;;;;;9.22;39.57;94983.03;5013170;28;20444;-82
2021/03/09 08:43:28;;;;;;;31.93;22.57;;;;;;;9.12;39.38;94981.25;5013263;28;20491;-82
2021/03/09 08:45:59;;;;;;;41.10;23.20;;;;;;;9.22;39.88;94979.59;5013228;28;20447;-82
2021/03/09 08:48:50;;;;;;;62.77;24.50;;;;;;;9.28;39.83;94979.13;5013127;28;20444;-81
2021/03/09 08:51:46;;;;;;;49.23;26.27;;;;;;;9.38;39.49;94981.84;5013100;28;20451;-82
2021/03/09 08:54:26;;;;;;;62.70;28.90;;;;;;;9.42;38.66;94983.28;5012899;28;20439;-83
2021/03/09 08:56:52;;;;;;;51.83;25.07;;;;;;;9.49;39.39;94987.91;5012875;28;20456;-83
2021/03/09 08:59:23;;;;;;;57.00;27.67;;;;;;;9.52;38.99;94992.88;5094341;28;20461;-82
2021/03/09 09:01:50;;;;;;;44.77;24.77;;;;;;;9.38;39.23;94989.69;5095079;28;20827;-83
2021/03/09 09:04:17;;;;;;;39.00;23.70;;;;;;;9.18;40.28;94981.63;5094703;28;20503;-83
2021/03/09 09:06:44;;;;;;;39.37;24.20;;;;;;;9.19;39.89;94983.28;5094604;28;20445;-82
2021/03/09 09:09:11;;;;;;;39.50;25.20;;;;;;;9.21;39.55;94989.22;5094949;28;20455;-83
2021/03/09 09:11:39;;;;;;;45.77;26.50;;;;;;;9.21;38.69;94977.91;5094782;28;20432;-83
2021/03/09 09:14:16;;;;;;;44.60;27.17;;;;;;;9.19;39.29;94980.66;5094669;28;20477;-83
2021/03/09 09:16:43;;;;;;;50.17;28.87;;;;;;;9.26;39.26;94974.00;5094191;28;20446;-81
2021/03/09 09:19:10;;;;;;;44.43;27.57;;;;;;;9.23;40.03;94976.84;5094138;28;20560;-82
2021/03/09 09:21:44;;;;;;;49.90;27.60;;;;;;;9.29;40.03;94992.09;5094138;28;20463;-82
2021/03/09 09:24:23;;;;;;;43.90;25.10;;;;;;;9.18;39.27;94981.63;5093645;28;20872;-85
2021/03/09 09:27:01;;;;;;;43.33;23.27;;;;;;;9.10;39.37;94986.63;5093683;28;20970;-81
2021/03/09 09:29:28;;;;;;;55.47;25.37;;;;;;;9.07;39.29;94984.25;5094288;28;20464;-82
2021/03/09 09:31:58;;;;;;;47.57;26.07;;;;;;;9.03;39.37;94980.19;5094073;28;20803;-82
2021/03/09 09:34:36;;;;;;;42.40;21.50;;;;;;;9.07;39.06;94976.38;5094583;28;20474;-82
2021/03/09 09:37:10;;;;;;;40.70;26.17;;;;;;;9.07;39.80;94981.63;5094317;28;20441;-82
2021/03/09 09:40:03;;;;;;;38.93;24.93;;;;;;;8.99;40.31;94973.53;5094223;28;20431;-81
2021/03/09 09:42:30;;;;;;;46.07;24.90;;;;;;;9.05;40.79;94965.22;5086611;28;20447;-82
2021/03/09 09:44:56;;;;;;;39.30;23.87;;;;;;;8.87;40.46;94972.69;5073741;28;20485;-82
2021/03/09 09:47:24;;;;;;;41.90;25.67;;;;;;;8.91;40.37;94965.41;5090734;28;20510;-81
2021/03/09 09:49:51;;;;;;;36.60;23.70;;;;;;;8.71;40.20;94966.13;5094444;28;20452;-82
2021/03/09 09:52:19;;;;;;;43.33;25.10;;;;;;;8.89;40.62;94983.84;5094174;28;20934;-81
2021/03/09 09:54:53;;;;;;;55.73;25.37;;;;;;;8.97;40.66;94964.97;5094423;28;20505;-82
2021/03/09 09:57:20;;;;;;;45.63;26.53;;;;;;;9.06;39.88;94966.03;5093823;28;20504;-81
2021/03/09 09:59:48;;;;;;;45.10;27.80;;;;;;;9.14;39.51;94961.88;5093896;28;20467;-82
2021/03/09 10:02:19;;;;;;;46.73;24.80;;;;;;;9.09;39.15;94961.41;5092664;28;20453;-82
2021/03/09 10:04:46;;;;;;;39.00;24.43;;;;;;;9.10;39.05;94954.38;5092420;28;20939;-81
2021/03/09 10:07:17;;;;;;;46.70;25.23;;;;;;;9.23;39.07;94961.13;5093267;28;20538;-82
2021/03/09 10:10:04;;;;;;;41.50;24.60;;;;;;;9.36;39.24;94960.19;5093125;28;20453;-81
2021/03/09 10:12:35;;;;;;;35.50;22.47;;;;;;;9.48;38.36;94957.41;5092993;28;20995;-82
2021/03/09 10:15:04;;;;;;;41.93;23.60;;;;;;;9.44;38.29;94957.78;5092998;28;20438;-83
2021/03/09 10:17:31;;;;;;;35.37;20.80;;;;;;;9.46;37.52;94953.25;5093389;28;20925;-82
2021/03/09 10:19:57;;;;;;;40.90;21.10;;;;;;;9.38;37.98;94953.03;5093204;28;20443;-82
2021/03/09 10:22:25;;;;;;;38.80;19.83;;;;;;;9.42;37.67;94957.06;5093441;28;20457;-82
2021/03/09 10:24:52;;;;;;;37.70;20.60;;;;;;;9.49;38.61;94950.38;5093439;28;20492;-82
2021/03/09 10:27:20;;;;;;;48.73;24.20;;;;;;;9.45;37.85;94954.22;5090391;28;20448;-83
2021/03/09 10:29:48;;;;;;;58.27;28.00;;;;;;;9.29;38.20;94939.72;5094205;28;20464;-82
2021/03/09 10:32:17;;;;;;;35.00;21.07;;;;;;;9.42;37.82;94939.56;5093378;28;20953;-81
2021/03/09 10:34:48;;;;;;;43.30;21.57;;;;;;;9.55;38.11;94940.28;5093365;28;20420;-81
2021/03/09 10:37:16;;;;;;;33.03;21.73;;;;;;;9.70;38.21;94947.84;5093676;28;20448;-81
2021/03/09 10:39:54;;;;;;;42.60;21.30;;;;;;;9.83;37.84;94941.50;5093249;28;20476;-82
2021/03/09 10:42:28;;;;;;;37.50;22.03;;;;;;;9.81;37.99;94937.31;5093125;28;20518;-82
2021/03/09 10:44:56;;;;;;;33.00;21.00;;;;;;;9.73;38.10;94932.72;5093249;28;20503;-82
2021/03/09 10:47:23;;;;;;;36.83;21.63;;;;;;;9.78;37.82;94934.97;5083768;28;20455;-82
2021/03/09 10:49:50;;;;;;;35.50;22.73;;;;;;;9.81;38.35;94927.69;5073170;28;20533;-82
2021/03/09 10:52:19;;;;;;;40.37;21.90;;;;;;;9.77;37.63;94931.50;5075419;28;20492;-82
2021/03/09 10:54:46;;;;;;;39.20;19.30;;;;;;;9.53;37.74;94918.59;5090233;28;20815;-81
2021/03/09 10:57:12;;;;;;;31.10;20.53;;;;;;;9.74;37.99;94930.94;5097517;28;20445;-82
2021/03/09 10:59:39;;;;;;;32.87;20.20;;;;;;;9.50;37.33;94915.38;5028909;28;20453;-81
2021/03/09 11:02:09;;;;;;;23.33;16.80;;;;;;;9.29;37.79;94916.16;5076987;28;21539;-82
2021/03/09 11:04:37;;;;;;;23.63;16.43;;;;;;;9.20;37.37;94913.41;5076681;28;20866;-82
2021/03/09 11:07:04;;;;;;;27.20;15.83;;;;;;;9.37;37.29;94912.94;5076879;28;20830;-82
2021/03/09 11:09:30;;;;;;;28.87;17.90;;;;;;;9.45;37.31;94907.06;5076968;28;20440;-82
2021/03/09 11:11:56;;;;;;;35.23;17.67;;;;;;;9.45;37.53;94907.06;5077217;28;20462;-82
2021/03/09 11:14:23;;;;;;;28.80;16.40;;;;;;;9.12;37.25;94903.56;5090102;28;20441;-81
2021/03/09 11:16:49;;;;;;;34.53;15.40;;;;;;;9.16;37.54;94906.75;5094189;28;20449;-82
2021/03/09 11:19:15;;;;;;;28.00;15.40;;;;;;;9.25;37.83;94904.28;5096131;28;20444;-81
2021/03/09 11:21:43;;;;;;;28.77;16.23;;;;;;;9.36;37.83;94897.34;5079264;28;20458;-82
2021/03/09 11:24:10;;;;;;;30.20;16.77;;;;;;;9.34;36.87;94899.25;5094560;28;20469;-81
2021/03/09 11:26:36;;;;;;;30.00;16.50;;;;;;;9.51;36.45;94901.34;5097414;28;20440;-81
2021/03/09 11:29:04;;;;;;;35.37;19.93;;;;;;;9.68;37.28;94903.44;5097099;28;20450;-81
2021/03/09 11:31:30;;;;;;;27.27;16.07;;;;;;;9.78;36.85;94899.09;5096498;28;20906;-82
2021/03/09 11:33:57;;;;;;;23.83;15.67;;;;;;;9.87;36.83;94880.03;5097089;28;20505;-82
2021/03/09 11:36:24;;;;;;;23.00;14.03;;;;;;;9.64;35.52;94886.31;5097115;28;20807;-81
2021/03/09 11:38:51;;;;;;;24.27;14.97;;;;;;;9.79;35.56;94869.31;5092665;28;20457;-81